Time;durP1;ratioP1;P1;durP2;ratioP2;P2;SDS_P1;SDS_P2;PMS_P1;PMS_P2;Temp;Humidity;BMP_temperature;BMP_pressure;BME280_temperature;BME280_humidity;BME280_pressure;Samples;Min_cycle;Max_cycle;Signal;HPM_P1;HPM_P2
2021/08/23 00:00:27;;;;;;;;;;;;;;;;;;2050229;28;1219;-90
2021/08/23 00:01:29;;;;;;;;;;;;;;;;;;2044085;28;1903;-91
2021/08/23 00:02:30;;;;;;;;;;;;;;;;;;2078802;28;1477;-90
2021/08/23 00:03:31;;;;;;;;;;;;;;;;;;2078338;28;1309;-89
2021/08/23 00:04:32;;;;;;;;;;;;;;;;;;2039127;29;1275;-89
2021/08/23 00:05:34;;;;;;;;;;;;;;;;;;2038778;29;1303;-90
2021/08/23 00:06:35;;;;;;;;;;;;;;;;;;2045631;28;1820;-89
2021/08/23 00:07:36;;;;;;;;;;;;;;;;;;2042450;28;1252;-83
2021/08/23 00:08:37;;;;;;;;;;;;;;;;;;2041612;29;1731;-84
2021/08/23 00:09:42;;;;;;;;;;;;;;;;;;2045656;28;1290;-83
2021/08/23 00:10:43;;;;;;;;;;;;;;;;;;2042262;29;1396;-87
2021/08/23 00:11:44;;;;;;;;;;;;;;;;;;2043287;29;2067;-86
2021/08/23 00:12:46;;;;;;;;;;;;;;;;;;2048240;28;1926;-87
2021/08/23 00:13:47;;;;;;;;;;;;;;;;;;2040389;29;1418;-84
2021/08/23 00:14:49;;;;;;;;;;;;;;;;;;2033284;28;1476;-85
2021/08/23 00:15:53;;;;;;;;;;;;;;;;;;2041274;29;1921;-86
2021/08/23 00:16:55;;;;;;;;;;;;;;;;;;2044762;28;1943;-84
2021/08/23 00:17:56;;;;;;;;;;;;;;;;;;2041885;29;1448;-84
2021/08/23 00:18:58;;;;;;;;;;;;;;;;;;2041554;28;1427;-84
2021/08/23 00:19:58;;;;;;;;;;;;;;;;;;2041537;28;1224;-85
2021/08/23 00:21:02;;;;;;;;;;;;;;;;;;2039541;29;1932;-85
2021/08/23 00:22:19;;;;;;;;;;;;;;;;;;2042348;29;2123;-86
2021/08/23 00:23:24;;;;;;;;;;;;;;;;;;2041562;28;1180;-85
2021/08/23 00:24:25;;;;;;;;;;;;;;;;;;2042303;29;1246;-83
2021/08/23 00:25:28;;;;;;;;;;;;;;;;;;2049427;29;1581;-83
2021/08/23 00:26:29;;;;;;;;;;;;;;;;;;2041485;29;1950;-84
2021/08/23 00:27:31;;;;;;;;;;;;;;;;;;2057974;28;1294;-84
2021/08/23 00:28:32;;;;;;;;;;;;;;;;;;2049133;29;1280;-83
2021/08/23 00:29:33;;;;;;;;;;;;;;;;;;2049203;29;1239;-84
2021/08/23 00:30:34;;;;;;;;;;;;;;;;;;2049465;29;1227;-84
2021/08/23 00:31:37;;;;;;;;;;;;;;;;;;2042944;29;1914;-84
2021/08/23 00:32:38;;;;;;;;;;;;;;;;;;2041342;29;1922;-84
2021/08/23 00:33:40;;;;;;;;;;;;;;;;;;2041650;29;1264;-83
2021/08/23 00:34:41;;;;;;;;;;;;;;;;;;2049266;29;1326;-83
2021/08/23 00:35:42;;;;;;;;;;;;;;;;;;2041552;29;1405;-86
2021/08/23 00:36:43;;;;;;;;;;;;;;;;;;2041521;29;2137;-86
2021/08/23 00:37:45;;;;;;;;;;;;;;;;;;2041410;28;1260;-85
2021/08/23 00:38:46;;;;;;;;;;;;;;;;;;2082693;28;1244;-86
2021/08/23 00:39:47;;;;;;;;;;;;;;;;;;2083273;28;1357;-85
2021/08/23 00:40:50;;;;;;;;;;;;;;;;;;2041440;28;1780;-86
2021/08/23 00:41:51;;;;;;;;;;;;;;;;;;2039209;28;1947;-85
2021/08/23 00:42:52;;;;;;;;;;;;;;;;;;2041451;29;1461;-86
2021/08/23 00:43:54;;;;;;;;;;;;;;;;;;2049246;29;1231;-86
2021/08/23 00:44:55;;;;;;;;;;;;;;;;;;2049644;29;1337;-86
2021/08/23 00:45:57;;;;;;;;;;;;;;;;;;2041783;29;1221;-85
2021/08/23 00:46:58;;;;;;;;;;;;;;;;;;2042043;29;1881;-86
2021/08/23 00:48:00;;;;;;;;;;;;;;;;;;2049690;29;1361;-85
2021/08/23 00:49:01;;;;;;;;;;;;;;;;;;2041523;29;1260;-86
2021/08/23 00:50:02;;;;;;;;;;;;;;;;;;2082811;28;1199;-86
2021/08/23 00:51:03;;;;;;;;;;;;;;;;;;2062789;28;1849;-86
2021/08/23 00:52:06;;;;;;;;;;;;;;;;;;2037943;29;1893;-86
2021/08/23 00:53:07;;;;;;;;;;;;;;;;;;2048722;29;1887;-85
2021/08/23 00:54:09;;;;;;;;;;;;;;;;;;2049492;29;1227;-86
2021/08/23 00:55:10;;;;;;;;;;;;;;;;;;2049589;29;1220;-85
2021/08/23 00:56:13;;;;;;;;;;;;;;;;;;2048849;28;1972;-86
2021/08/23 00:57:14;;;;;;;;;;;;;;;;;;2041927;29;1893;-85
2021/08/23 00:58:16;;;;;;;;;;;;;;;;;;2033339;28;1266;-85
2021/08/23 00:59:19;;;;;;;;;;;;;;;;;;2041858;28;1307;-85
2021/08/23 01:00:21;;;;;;;;;;;;;;;;;;2041448;29;1431;-85
2021/08/23 01:01:25;;;;;;;;;;;;;;;;;;2042218;29;2042;-84
2021/08/23 01:02:28;;;;;;;;;;;;;;;;;;2049461;28;1951;-84
2021/08/23 01:03:32;;;;;;;;;;;;;;;;;;2041418;29;1221;-84
2021/08/23 01:04:37;;;;;;;;;;;;;;;;;;2041556;29;1245;-84
2021/08/23 01:05:38;;;;;;;;;;;;;;;;;;2049596;29;1129;-85
2021/08/23 01:06:40;;;;;;;;;;;;;;;;;;2049932;28;1889;-85
2021/08/23 01:07:43;;;;;;;;;;;;;;;;;;2049653;29;1373;-85
2021/08/23 01:08:45;;;;;;;;;;;;;;;;;;2049152;29;1291;-84
2021/08/23 01:09:48;;;;;;;;;;;;;;;;;;2034214;29;1370;-84
2021/08/23 01:10:52;;;;;;;;;;;;;;;;;;2041078;29;1859;-85
2021/08/23 01:11:55;;;;;;;;;;;;;;;;;;2051921;28;2027;-85
2021/08/23 01:12:57;;;;;;;;;;;;;;;;;;2057155;28;1891;-85
2021/08/23 01:13:59;;;;;;;;;;;;;;;;;;2049439;29;1323;-84
2021/08/23 01:15:01;;;;;;;;;;;;;;;;;;2041305;28;1301;-84
2021/08/23 01:16:02;;;;;;;;;;;;;;;;;;2041050;29;1722;-85
2021/08/23 01:17:04;;;;;;;;;;;;;;;;;;2041285;28;1390;-85
2021/08/23 01:18:05;;;;;;;;;;;;;;;;;;2041426;29;1216;-84
2021/08/23 01:19:06;;;;;;;;;;;;;;;;;;2040822;29;1220;-85
2021/08/23 01:20:08;;;;;;;;;;;;;;;;;;2041557;29;1224;-85
2021/08/23 01:21:10;;;;;;;;;;;;;;;;;;2043980;28;1946;-85
2021/08/23 01:22:12;;;;;;;;;;;;;;;;;;2040901;28;1866;-85
2021/08/23 01:23:15;;;;;;;;;;;;;;;;;;2033799;28;1347;-85
2021/08/23 01:24:15;;;;;;;;;;;;;;;;;;2033578;28;1430;-84
2021/08/23 01:25:21;;;;;;;;;;;;;;;;;;2033523;28;1437;-85
2021/08/23 01:26:24;;;;;;;;;;;;;;;;;;2045517;29;1891;-85
2021/08/23 01:27:27;;;;;;;;;;;;;;;;;;2055950;28;1958;-85
2021/08/23 01:28:33;;;;;;;;;;;;;;;;;;2049419;29;1307;-85
2021/08/23 01:29:40;;;;;;;;;;;;;;;;;;2050209;28;1406;-85
2021/08/23 01:30:46;;;;;;;;;;;;;;;;;;2057479;28;1271;-85
2021/08/23 01:31:51;;;;;;;;;;;;;;;;;;2042186;28;1872;-85
2021/08/23 01:32:55;;;;;;;;;;;;;;;;;;2033541;28;1938;-85
2021/08/23 01:33:55;;;;;;;;;;;;;;;;;;2033684;29;1222;-84
2021/08/23 01:34:59;;;;;;;;;;;;;;;;;;2041325;29;1434;-85
2021/08/23 01:36:00;;;;;;;;;;;;;;;;;;2073237;28;1287;-86
2021/08/23 01:37:02;;;;;;;;;;;;;;;;;;2045026;28;1937;-86
2021/08/23 01:38:05;;;;;;;;;;;;;;;;;;2041563;28;1395;-85
2021/08/23 01:39:06;;;;;;;;;;;;;;;;;;2033674;29;1349;-86
2021/08/23 01:40:09;;;;;;;;;;;;;;;;;;2040880;28;1296;-86
2021/08/23 01:41:09;;;;;;;;;;;;;;;;;;2051998;28;1964;-86
2021/08/23 01:42:11;;;;;;;;;;;;;;;;;;2043967;29;1924;-85
2021/08/23 01:43:12;;;;;;;;;;;;;;;;;;2033795;29;1160;-86
2021/08/23 01:44:14;;;;;;;;;;;;;;;;;;2041148;29;1328;-85
2021/08/23 01:45:15;;;;;;;;;;;;;;;;;;2082665;28;1296;-86
2021/08/23 01:46:18;;;;;;;;;;;;;;;;;;2064887;28;2034;-86
2021/08/23 01:47:18;;;;;;;;;;;;;;;;;;2048419;29;2100;-86
2021/08/23 01:48:22;;;;;;;;;;;;;;;;;;2048991;28;1283;-86
2021/08/23 01:49:22;;;;;;;;;;;;;;;;;;2041305;29;1338;-85
2021/08/23 01:50:24;;;;;;;;;;;;;;;;;;2041193;29;1260;-86
2021/08/23 01:51:25;;;;;;;;;;;;;;;;;;2046591;29;2045;-85
2021/08/23 01:52:27;;;;;;;;;;;;;;;;;;2033787;28;1905;-85
2021/08/23 01:53:27;;;;;;;;;;;;;;;;;;2033833;28;1891;-85
2021/08/23 01:54:29;;;;;;;;;;;;;;;;;;2041040;28;1389;-85
2021/08/23 01:55:30;;;;;;;;;;;;;;;;;;2049283;28;1259;-85
2021/08/23 01:56:32;;;;;;;;;;;;;;;;;;2046466;28;1851;-85
2021/08/23 01:57:33;;;;;;;;;;;;;;;;;;2041653;29;1299;-85
2021/08/23 01:58:34;;;;;;;;;;;;;;;;;;2041260;29;1354;-86
2021/08/23 01:59:35;;;;;;;;;;;;;;;;;;2041181;29;1442;-86
2021/08/23 02:00:37;;;;;;;;;;;;;;;;;;2048805;29;1324;-85
2021/08/23 02:01:38;;;;;;;;;;;;;;;;;;2046676;28;1874;-86
2021/08/23 02:02:40;;;;;;;;;;;;;;;;;;2041214;29;1290;-86
2021/08/23 02:03:42;;;;;;;;;;;;;;;;;;2041608;29;1246;-86
2021/08/23 02:04:44;;;;;;;;;;;;;;;;;;2050194;29;1247;-86
2021/08/23 02:05:45;;;;;;;;;;;;;;;;;;2042706;29;1903;-86
2021/08/23 02:06:46;;;;;;;;;;;;;;;;;;2050394;29;1465;-86
2021/08/23 02:07:47;;;;;;;;;;;;;;;;;;2092834;28;1337;-86
2021/08/23 02:08:49;;;;;;;;;;;;;;;;;;2083995;28;1229;-86
2021/08/23 02:09:50;;;;;;;;;;;;;;;;;;2050878;28;1299;-86
2021/08/23 02:10:52;;;;;;;;;;;;;;;;;;2049064;28;1439;-86
2021/08/23 02:11:53;;;;;;;;;;;;;;;;;;2042955;29;1868;-86
2021/08/23 02:12:57;;;;;;;;;;;;;;;;;;2050415;29;1382;-85
2021/08/23 02:13:57;;;;;;;;;;;;;;;;;;2042510;29;1921;-85
2021/08/23 02:14:59;;;;;;;;;;;;;;;;;;2042126;28;1432;-86
2021/08/23 02:16:00;;;;;;;;;;;;;;;;;;2050301;29;1192;-87
2021/08/23 02:17:02;;;;;;;;;;;;;;;;;;2042668;29;1954;-87
2021/08/23 02:18:03;;;;;;;;;;;;;;;;;;2084613;28;1358;-86
2021/08/23 02:19:06;;;;;;;;;;;;;;;;;;2083692;28;1193;-86
2021/08/23 02:20:08;;;;;;;;;;;;;;;;;;2042641;29;1251;-86
2021/08/23 02:21:11;;;;;;;;;;;;;;;;;;2037335;29;1869;-86
2021/08/23 02:22:12;;;;;;;;;;;;;;;;;;2042284;29;1220;-87
2021/08/23 02:23:14;;;;;;;;;;;;;;;;;;2050529;29;1250;-86
2021/08/23 02:24:15;;;;;;;;;;;;;;;;;;2050350;28;1251;-86
2021/08/23 02:25:21;;;;;;;;;;;;;;;;;;2050786;29;1311;-86
2021/08/23 02:26:22;;;;;;;;;;;;;;;;;;2050379;29;1212;-86
2021/08/23 02:27:24;;;;;;;;;;;;;;;;;;2057317;28;2107;-86
2021/08/23 02:28:25;;;;;;;;;;;;;;;;;;2058722;28;1354;-86
2021/08/23 02:29:27;;;;;;;;;;;;;;;;;;2050298;28;1287;-86
2021/08/23 02:30:27;;;;;;;;;;;;;;;;;;2050608;28;1370;-86
2021/08/23 02:31:29;;;;;;;;;;;;;;;;;;2052234;28;1887;-86
2021/08/23 02:32:30;;;;;;;;;;;;;;;;;;2042541;28;1274;-86
2021/08/23 02:33:32;;;;;;;;;;;;;;;;;;2042647;29;1919;-86
2021/08/23 02:34:34;;;;;;;;;;;;;;;;;;2050170;28;1279;-86
2021/08/23 02:35:36;;;;;;;;;;;;;;;;;;2042602;29;1331;-86
2021/08/23 02:36:37;;;;;;;;;;;;;;;;;;2047496;28;1898;-87
2021/08/23 02:37:39;;;;;;;;;;;;;;;;;;2042588;29;1221;-86
2021/08/23 02:38:39;;;;;;;;;;;;;;;;;;2042545;29;1299;-86
2021/08/23 02:39:41;;;;;;;;;;;;;;;;;;2050493;28;1358;-86
2021/08/23 02:40:42;;;;;;;;;;;;;;;;;;2050819;29;1188;-86
2021/08/23 02:41:44;;;;;;;;;;;;;;;;;;2050458;28;1940;-86
2021/08/23 02:42:45;;;;;;;;;;;;;;;;;;2050520;29;1365;-86
2021/08/23 02:43:47;;;;;;;;;;;;;;;;;;2050374;29;1372;-86
2021/08/23 02:44:48;;;;;;;;;;;;;;;;;;2050583;28;1216;-86
2021/08/23 02:45:50;;;;;;;;;;;;;;;;;;2050347;29;1241;-86
2021/08/23 02:46:51;;;;;;;;;;;;;;;;;;2042544;29;1224;-86
2021/08/23 02:47:53;;;;;;;;;;;;;;;;;;2042656;28;1220;-87
2021/08/23 02:48:54;;;;;;;;;;;;;;;;;;2034053;29;1317;-87
2021/08/23 02:49:58;;;;;;;;;;;;;;;;;;2042789;29;1336;-86
2021/08/23 02:50:59;;;;;;;;;;;;;;;;;;2050137;29;864;-86
2021/08/23 02:52:01;;;;;;;;;;;;;;;;;;2050597;28;1871;-86
2021/08/23 02:53:02;;;;;;;;;;;;;;;;;;2042472;28;1164;-88
2021/08/23 02:54:04;;;;;;;;;;;;;;;;;;2042540;29;1973;-86
2021/08/23 02:55:05;;;;;;;;;;;;;;;;;;2042319;29;1168;-86
2021/08/23 02:56:07;;;;;;;;;;;;;;;;;;2034339;29;1892;-90
2021/08/23 02:57:08;;;;;;;;;;;;;;;;;;2034398;28;1870;-88
2021/08/23 02:58:10;;;;;;;;;;;;;;;;;;2034546;28;1264;-86
2021/08/23 02:59:12;;;;;;;;;;;;;;;;;;2042721;28;1266;-86
2021/08/23 03:00:13;;;;;;;;;;;;;;;;;;2042476;29;1326;-86
2021/08/23 03:01:15;;;;;;;;;;;;;;;;;;2042554;29;1359;-86
2021/08/23 03:02:16;;;;;;;;;;;;;;;;;;2048428;28;1872;-86
2021/08/23 03:03:18;;;;;;;;;;;;;;;;;;2042304;28;1301;-86
2021/08/23 03:04:19;;;;;;;;;;;;;;;;;;2049894;28;1550;-87
2021/08/23 03:05:22;;;;;;;;;;;;;;;;;;2058352;28;1205;-86
2021/08/23 03:06:23;;;;;;;;;;;;;;;;;;2041887;29;1212;-86
2021/08/23 03:07:24;;;;;;;;;;;;;;;;;;2043339;29;1913;-85
2021/08/23 03:08:26;;;;;;;;;;;;;;;;;;2042054;28;1324;-86
2021/08/23 03:09:27;;;;;;;;;;;;;;;;;;2034251;29;1216;-86
2021/08/23 03:10:28;;;;;;;;;;;;;;;;;;2042411;29;1443;-85
2021/08/23 03:11:30;;;;;;;;;;;;;;;;;;2041623;28;2013;-86
2021/08/23 03:12:32;;;;;;;;;;;;;;;;;;2050460;28;1230;-86
2021/08/23 03:13:33;;;;;;;;;;;;;;;;;;2050306;28;1910;-85
2021/08/23 03:14:35;;;;;;;;;;;;;;;;;;2042309;29;1367;-85
2021/08/23 03:15:36;;;;;;;;;;;;;;;;;;2042108;29;1185;-86
2021/08/23 03:16:37;;;;;;;;;;;;;;;;;;2040811;29;1872;-85
2021/08/23 03:17:38;;;;;;;;;;;;;;;;;;2042363;28;1196;-85
2021/08/23 03:18:41;;;;;;;;;;;;;;;;;;2033789;29;1320;-85
2021/08/23 03:19:41;;;;;;;;;;;;;;;;;;2034670;29;1280;-85
2021/08/23 03:20:45;;;;;;;;;;;;;;;;;;2042400;29;1341;-86
2021/08/23 03:21:46;;;;;;;;;;;;;;;;;;2042481;29;1909;-86
2021/08/23 03:22:47;;;;;;;;;;;;;;;;;;2034316;29;1336;-86
2021/08/23 03:23:49;;;;;;;;;;;;;;;;;;2042026;29;1379;-86
2021/08/23 03:24:50;;;;;;;;;;;;;;;;;;2050091;29;1316;-85
2021/08/23 03:25:52;;;;;;;;;;;;;;;;;;2050006;28;2029;-85
2021/08/23 03:26:53;;;;;;;;;;;;;;;;;;2049217;29;1904;-85
2021/08/23 03:27:54;;;;;;;;;;;;;;;;;;2050219;28;1287;-86
2021/08/23 03:28:56;;;;;;;;;;;;;;;;;;2050218;28;1424;-86
2021/08/23 03:29:57;;;;;;;;;;;;;;;;;;2042210;29;1228;-86
2021/08/23 03:30:58;;;;;;;;;;;;;;;;;;2049364;29;1929;-86
2021/08/23 03:31:59;;;;;;;;;;;;;;;;;;2053846;28;1866;-84
2021/08/23 03:33:01;;;;;;;;;;;;;;;;;;2041721;29;1334;-85
2021/08/23 03:34:02;;;;;;;;;;;;;;;;;;2042320;28;1911;-86
2021/08/23 03:35:04;;;;;;;;;;;;;;;;;;2042185;28;1400;-86
2021/08/23 03:36:07;;;;;;;;;;;;;;;;;;2039778;28;1888;-86
2021/08/23 03:37:08;;;;;;;;;;;;;;;;;;2042391;29;2106;-85
2021/08/23 03:38:10;;;;;;;;;;;;;;;;;;2049756;29;1225;-86
2021/08/23 03:39:11;;;;;;;;;;;;;;;;;;2042524;29;1331;-85
2021/08/23 03:40:13;;;;;;;;;;;;;;;;;;2041665;29;1244;-87
2021/08/23 03:41:14;;;;;;;;;;;;;;;;;;2042466;29;1852;-83
2021/08/23 03:42:16;;;;;;;;;;;;;;;;;;2055712;28;1976;-84
2021/08/23 03:43:17;;;;;;;;;;;;;;;;;;2050143;28;1476;-84
2021/08/23 03:44:18;;;;;;;;;;;;;;;;;;2049580;28;1349;-84
2021/08/23 03:45:19;;;;;;;;;;;;;;;;;;2058044;28;1252;-84
2021/08/23 03:46:21;;;;;;;;;;;;;;;;;;2049818;29;1239;-85
2021/08/23 03:47:22;;;;;;;;;;;;;;;;;;2041784;29;1866;-84
2021/08/23 03:48:24;;;;;;;;;;;;;;;;;;2049722;29;1291;-85
2021/08/23 03:49:25;;;;;;;;;;;;;;;;;;2049903;29;1235;-84
2021/08/23 03:50:27;;;;;;;;;;;;;;;;;;2042046;29;1161;-84
2021/08/23 03:51:29;;;;;;;;;;;;;;;;;;2041864;28;1871;-84
2021/08/23 03:52:31;;;;;;;;;;;;;;;;;;2042388;28;1275;-84
2021/08/23 03:53:32;;;;;;;;;;;;;;;;;;2041610;28;1141;-84
2021/08/23 03:54:34;;;;;;;;;;;;;;;;;;2034021;29;1904;-84
2021/08/23 03:55:34;;;;;;;;;;;;;;;;;;2034454;29;1232;-84
2021/08/23 03:56:36;;;;;;;;;;;;;;;;;;2040472;29;1892;-84
2021/08/23 03:57:37;;;;;;;;;;;;;;;;;;2042183;29;1556;-83
2021/08/23 03:58:39;;;;;;;;;;;;;;;;;;2041667;29;1300;-84
2021/08/23 03:59:39;;;;;;;;;;;;;;;;;;2042056;29;1352;-84
2021/08/23 04:00:41;;;;;;;;;;;;;;;;;;2033768;29;1374;-84
2021/08/23 04:01:42;;;;;;;;;;;;;;;;;;2034928;29;1893;-84
2021/08/23 04:02:45;;;;;;;;;;;;;;;;;;2033897;29;1347;-84
2021/08/23 04:03:46;;;;;;;;;;;;;;;;;;2042136;29;1337;-84
2021/08/23 04:04:48;;;;;;;;;;;;;;;;;;2041894;29;1325;-83
2021/08/23 04:05:49;;;;;;;;;;;;;;;;;;2041779;29;2002;-84
2021/08/23 04:06:52;;;;;;;;;;;;;;;;;;2049431;29;1876;-84
2021/08/23 04:07:52;;;;;;;;;;;;;;;;;;2049801;28;1335;-83
2021/08/23 04:08:54;;;;;;;;;;;;;;;;;;2049702;29;1485;-84
2021/08/23 04:09:55;;;;;;;;;;;;;;;;;;2049775;29;1232;-84
2021/08/23 04:10:57;;;;;;;;;;;;;;;;;;2049071;28;2097;-84
2021/08/23 04:11:58;;;;;;;;;;;;;;;;;;2048844;29;1877;-84
2021/08/23 04:13:00;;;;;;;;;;;;;;;;;;2049325;29;1369;-83
2021/08/23 04:14:00;;;;;;;;;;;;;;;;;;2041785;29;1923;-84
2021/08/23 04:15:02;;;;;;;;;;;;;;;;;;2041391;29;1326;-84
2021/08/23 04:16:03;;;;;;;;;;;;;;;;;;2048982;29;1717;-84
2021/08/23 04:17:05;;;;;;;;;;;;;;;;;;2049202;29;1943;-84
2021/08/23 04:18:06;;;;;;;;;;;;;;;;;;2041944;29;1208;-84
2021/08/23 04:19:08;;;;;;;;;;;;;;;;;;2041597;29;1402;-83
2021/08/23 04:20:09;;;;;;;;;;;;;;;;;;2041043;28;1287;-84
2021/08/23 04:21:11;;;;;;;;;;;;;;;;;;2042393;28;1879;-84
2021/08/23 04:22:13;;;;;;;;;;;;;;;;;;2046424;29;1852;-84
2021/08/23 04:23:15;;;;;;;;;;;;;;;;;;2049586;29;1288;-84
2021/08/23 04:24:16;;;;;;;;;;;;;;;;;;2049587;29;889;-84
2021/08/23 04:25:17;;;;;;;;;;;;;;;;;;2041622;29;1581;-83
2021/08/23 04:26:18;;;;;;;;;;;;;;;;;;2041680;29;1204;-84
2021/08/23 04:27:20;;;;;;;;;;;;;;;;;;2040999;28;1790;-85
2021/08/23 04:28:21;;;;;;;;;;;;;;;;;;2041077;29;1230;-84
2021/08/23 04:29:22;;;;;;;;;;;;;;;;;;2041526;28;1676;-84
2021/08/23 04:30:24;;;;;;;;;;;;;;;;;;2033854;29;1385;-84
2021/08/23 04:31:28;;;;;;;;;;;;;;;;;;2042100;29;1577;-84
2021/08/23 04:32:30;;;;;;;;;;;;;;;;;;2033823;29;1303;-84
2021/08/23 04:33:30;;;;;;;;;;;;;;;;;;2034046;29;1229;-84
2021/08/23 04:34:33;;;;;;;;;;;;;;;;;;2041377;29;1899;-84
2021/08/23 04:35:34;;;;;;;;;;;;;;;;;;2034304;28;1263;-84
2021/08/23 04:36:36;;;;;;;;;;;;;;;;;;2034076;29;2039;-85
2021/08/23 04:37:38;;;;;;;;;;;;;;;;;;2041864;29;1586;-83
2021/08/23 04:38:40;;;;;;;;;;;;;;;;;;2041500;28;1664;-84
2021/08/23 04:39:40;;;;;;;;;;;;;;;;;;2033853;29;1233;-84
2021/08/23 04:40:42;;;;;;;;;;;;;;;;;;2041251;28;1230;-84
2021/08/23 04:41:43;;;;;;;;;;;;;;;;;;2043094;28;2037;-85
2021/08/23 04:42:45;;;;;;;;;;;;;;;;;;2048797;28;1309;-84
2021/08/23 04:43:47;;;;;;;;;;;;;;;;;;2044608;29;1334;-84
2021/08/23 04:44:48;;;;;;;;;;;;;;;;;;2041224;29;1283;-84
2021/08/23 04:45:49;;;;;;;;;;;;;;;;;;2049131;28;1741;-84
2021/08/23 04:46:51;;;;;;;;;;;;;;;;;;2046705;28;1816;-84
2021/08/23 04:47:51;;;;;;;;;;;;;;;;;;2041497;29;1302;-84
2021/08/23 04:48:53;;;;;;;;;;;;;;;;;;2040963;29;1259;-83
2021/08/23 04:49:54;;;;;;;;;;;;;;;;;;2049123;28;1322;-85
2021/08/23 04:50:56;;;;;;;;;;;;;;;;;;2049160;29;1317;-86
2021/08/23 04:51:56;;;;;;;;;;;;;;;;;;2041238;29;1704;-85
2021/08/23 04:52:59;;;;;;;;;;;;;;;;;;2041541;29;1347;-85
2021/08/23 04:54:00;;;;;;;;;;;;;;;;;;2049679;28;1949;-84
2021/08/23 04:55:02;;;;;;;;;;;;;;;;;;2057155;28;1278;-85
2021/08/23 04:56:08;;;;;;;;;;;;;;;;;;2049695;28;1310;-86
2021/08/23 04:57:10;;;;;;;;;;;;;;;;;;2048537;28;1669;-85
2021/08/23 04:58:11;;;;;;;;;;;;;;;;;;2049443;29;1416;-86
2021/08/23 04:59:13;;;;;;;;;;;;;;;;;;2049515;29;1317;-85
2021/08/23 05:00:14;;;;;;;;;;;;;;;;;;2057499;28;1377;-85
2021/08/23 05:01:16;;;;;;;;;;;;;;;;;;2049473;29;1315;-85
2021/08/23 05:02:16;;;;;;;;;;;;;;;;;;2048580;28;1948;-85
2021/08/23 05:03:18;;;;;;;;;;;;;;;;;;2049543;29;1412;-86
2021/08/23 05:04:19;;;;;;;;;;;;;;;;;;2048958;29;1357;-84
2021/08/23 05:05:21;;;;;;;;;;;;;;;;;;2049602;28;1372;-85
2021/08/23 05:06:22;;;;;;;;;;;;;;;;;;2049264;28;1404;-85
2021/08/23 05:07:23;;;;;;;;;;;;;;;;;;2048307;28;1869;-85
2021/08/23 05:08:26;;;;;;;;;;;;;;;;;;2049185;28;1400;-85
2021/08/23 05:09:28;;;;;;;;;;;;;;;;;;2049244;28;1392;-85
2021/08/23 05:10:28;;;;;;;;;;;;;;;;;;2049026;28;1398;-85
2021/08/23 05:11:31;;;;;;;;;;;;;;;;;;2048601;28;1766;-86
2021/08/23 05:12:31;;;;;;;;;;;;;;;;;;2048657;28;1360;-85
2021/08/23 05:13:33;;;;;;;;;;;;;;;;;;2049854;28;1283;-85
2021/08/23 05:14:34;;;;;;;;;;;;;;;;;;2049128;29;1984;-84
2021/08/23 05:15:36;;;;;;;;;;;;;;;;;;2049470;28;1303;-84
2021/08/23 05:16:37;;;;;;;;;;;;;;;;;;2048123;28;1921;-85
2021/08/23 05:17:39;;;;;;;;;;;;;;;;;;2033297;29;1243;-84
2021/08/23 05:18:39;;;;;;;;;;;;;;;;;;2040761;29;1418;-84
2021/08/23 05:19:41;;;;;;;;;;;;;;;;;;2041488;29;1334;-84
2021/08/23 05:20:42;;;;;;;;;;;;;;;;;;2041356;28;1312;-84
2021/08/23 05:21:44;;;;;;;;;;;;;;;;;;2041122;29;1889;-83
2021/08/23 05:22:45;;;;;;;;;;;;;;;;;;2033427;28;1256;-84
2021/08/23 05:23:48;;;;;;;;;;;;;;;;;;2033754;28;1395;-84
2021/08/23 05:24:49;;;;;;;;;;;;;;;;;;2033560;28;1265;-84
2021/08/23 05:25:50;;;;;;;;;;;;;;;;;;2041590;28;1266;-85
2021/08/23 05:26:52;;;;;;;;;;;;;;;;;;2041702;28;1908;-85
2021/08/23 05:27:53;;;;;;;;;;;;;;;;;;2041695;29;1343;-85
2021/08/23 05:28:55;;;;;;;;;;;;;;;;;;2041278;28;1302;-85
2021/08/23 05:29:55;;;;;;;;;;;;;;;;;;2033571;29;1386;-84
2021/08/23 05:30:57;;;;;;;;;;;;;;;;;;2041538;29;1351;-84
2021/08/23 05:31:58;;;;;;;;;;;;;;;;;;2062494;28;2039;-84
2021/08/23 05:33:00;;;;;;;;;;;;;;;;;;2041011;29;1197;-85
2021/08/23 05:34:02;;;;;;;;;;;;;;;;;;2041659;28;1279;-85
2021/08/23 05:35:03;;;;;;;;;;;;;;;;;;2041482;28;1975;-85
2021/08/23 05:36:05;;;;;;;;;;;;;;;;;;2041529;28;1296;-84
2021/08/23 05:37:06;;;;;;;;;;;;;;;;;;2033177;29;1346;-85
2021/08/23 05:38:07;;;;;;;;;;;;;;;;;;2041352;29;1253;-86
2021/08/23 05:39:09;;;;;;;;;;;;;;;;;;2041446;29;1236;-85
2021/08/23 05:40:12;;;;;;;;;;;;;;;;;;2042671;28;1415;-85
2021/08/23 05:41:13;;;;;;;;;;;;;;;;;;2042937;29;1287;-85
2021/08/23 05:42:14;;;;;;;;;;;;;;;;;;2035129;28;1869;-84
2021/08/23 05:43:16;;;;;;;;;;;;;;;;;;2042423;28;1359;-85
2021/08/23 05:44:17;;;;;;;;;;;;;;;;;;2050226;29;1308;-84
2021/08/23 05:45:20;;;;;;;;;;;;;;;;;;2042839;29;1217;-84
2021/08/23 05:46:23;;;;;;;;;;;;;;;;;;2034744;28;1204;-84
2021/08/23 05:47:23;;;;;;;;;;;;;;;;;;2041909;28;2041;-84
2021/08/23 05:48:25;;;;;;;;;;;;;;;;;;2050772;28;1568;-84
2021/08/23 05:49:26;;;;;;;;;;;;;;;;;;2050531;28;1303;-84
2021/08/23 05:50:28;;;;;;;;;;;;;;;;;;2042818;28;1287;-84
2021/08/23 05:51:29;;;;;;;;;;;;;;;;;;2042147;29;2088;-85
2021/08/23 05:52:30;;;;;;;;;;;;;;;;;;2050215;29;1391;-84
2021/08/23 05:53:31;;;;;;;;;;;;;;;;;;2042309;29;1317;-84
2021/08/23 05:54:37;;;;;;;;;;;;;;;;;;2042608;29;1974;-84
2021/08/23 05:55:38;;;;;;;;;;;;;;;;;;2042757;29;1568;-84
2021/08/23 05:56:41;;;;;;;;;;;;;;;;;;2042758;28;1224;-84
2021/08/23 05:57:42;;;;;;;;;;;;;;;;;;2042118;29;1323;-84
2021/08/23 05:58:44;;;;;;;;;;;;;;;;;;2042489;28;1363;-84
2021/08/23 05:59:44;;;;;;;;;;;;;;;;;;2042716;29;1291;-83
2021/08/23 06:00:46;;;;;;;;;;;;;;;;;;2042159;29;1322;-84
2021/08/23 06:01:51;;;;;;;;;;;;;;;;;;2042705;29;1319;-84
2021/08/23 06:02:53;;;;;;;;;;;;;;;;;;2035139;29;1236;-84
2021/08/23 06:03:53;;;;;;;;;;;;;;;;;;2042423;28;1213;-84
2021/08/23 06:04:55;;;;;;;;;;;;;;;;;;2042417;29;1224;-85
2021/08/23 06:05:56;;;;;;;;;;;;;;;;;;2043936;28;1939;-85
2021/08/23 06:06:58;;;;;;;;;;;;;;;;;;2053791;28;2070;-85
2021/08/23 06:07:58;;;;;;;;;;;;;;;;;;2050251;29;1256;-85
2021/08/23 06:09:00;;;;;;;;;;;;;;;;;;2050567;29;1200;-85
2021/08/23 06:10:03;;;;;;;;;;;;;;;;;;2058503;28;1314;-85
2021/08/23 06:11:04;;;;;;;;;;;;;;;;;;2058060;28;1358;-85
2021/08/23 06:12:06;;;;;;;;;;;;;;;;;;2050558;29;1228;-85
2021/08/23 06:13:08;;;;;;;;;;;;;;;;;;2050470;28;1188;-85
2021/08/23 06:14:08;;;;;;;;;;;;;;;;;;2050165;29;1326;-86
2021/08/23 06:15:10;;;;;;;;;;;;;;;;;;2042685;28;1910;-83
2021/08/23 06:16:11;;;;;;;;;;;;;;;;;;2050736;28;1390;-85
2021/08/23 06:17:13;;;;;;;;;;;;;;;;;;2050548;28;1211;-84
2021/08/23 06:18:15;;;;;;;;;;;;;;;;;;2050674;29;1342;-85
2021/08/23 06:19:16;;;;;;;;;;;;;;;;;;2042696;29;1248;-84
2021/08/23 06:20:18;;;;;;;;;;;;;;;;;;2042642;28;1416;-85
2021/08/23 06:21:18;;;;;;;;;;;;;;;;;;2042132;28;1201;-84
2021/08/23 06:22:20;;;;;;;;;;;;;;;;;;2041124;29;1841;-84
2021/08/23 06:23:21;;;;;;;;;;;;;;;;;;2050641;29;1291;-85
2021/08/23 06:24:23;;;;;;;;;;;;;;;;;;2050535;29;1498;-84
2021/08/23 06:25:26;;;;;;;;;;;;;;;;;;2050484;29;1248;-84
2021/08/23 06:26:27;;;;;;;;;;;;;;;;;;2042417;29;1209;-84
2021/08/23 06:27:29;;;;;;;;;;;;;;;;;;2042659;29;1424;-85
2021/08/23 06:28:30;;;;;;;;;;;;;;;;;;2050256;29;1208;-85
2021/08/23 06:29:32;;;;;;;;;;;;;;;;;;2042768;29;1228;-86
2021/08/23 06:30:33;;;;;;;;;;;;;;;;;;2042609;29;1249;-85
2021/08/23 06:31:35;;;;;;;;;;;;;;;;;;2048919;28;1942;-85
2021/08/23 06:32:36;;;;;;;;;;;;;;;;;;2058398;28;1041;-84
2021/08/23 06:33:38;;;;;;;;;;;;;;;;;;2058296;28;1357;-84
2021/08/23 06:34:38;;;;;;;;;;;;;;;;;;2049397;29;1914;-85
2021/08/23 06:35:40;;;;;;;;;;;;;;;;;;2042486;28;1358;-85
2021/08/23 06:36:44;;;;;;;;;;;;;;;;;;2049564;29;1881;-84
2021/08/23 06:37:46;;;;;;;;;;;;;;;;;;2052697;28;1327;-85
2021/08/23 06:38:47;;;;;;;;;;;;;;;;;;2052931;29;1354;-85
2021/08/23 06:39:49;;;;;;;;;;;;;;;;;;2045271;29;1313;-86
2021/08/23 06:40:52;;;;;;;;;;;;;;;;;;2045034;28;1189;-85
2021/08/23 06:41:53;;;;;;;;;;;;;;;;;;2052329;28;2017;-85
2021/08/23 06:42:54;;;;;;;;;;;;;;;;;;2052268;28;1362;-86
2021/08/23 06:43:55;;;;;;;;;;;;;;;;;;2053817;28;1230;-85
2021/08/23 06:44:57;;;;;;;;;;;;;;;;;;2037443;29;1221;-85
2021/08/23 06:45:58;;;;;;;;;;;;;;;;;;2049270;28;1562;-85
2021/08/23 06:47:00;;;;;;;;;;;;;;;;;;2046095;29;1920;-85
2021/08/23 06:48:01;;;;;;;;;;;;;;;;;;2034736;29;1193;-85
2021/08/23 06:49:03;;;;;;;;;;;;;;;;;;2034970;28;1201;-85
2021/08/23 06:50:06;;;;;;;;;;;;;;;;;;2035053;28;1421;-85
2021/08/23 06:51:07;;;;;;;;;;;;;;;;;;2042914;29;1689;-85
2021/08/23 06:52:09;;;;;;;;;;;;;;;;;;2042188;29;1363;-88
2021/08/23 06:53:16;;;;;;;;;;;;;;;;;;2043151;29;1350;-87
2021/08/23 06:54:19;;;;;;;;;;;;;;;;;;2045513;28;1580;-86
2021/08/23 06:55:21;;;;;;;;;;;;;;;;;;2050710;29;1915;-87
2021/08/23 06:56:24;;;;;;;;;;;;;;;;;;2041675;28;1488;-87
2021/08/23 06:57:26;;;;;;;;;;;;;;;;;;2042572;28;1384;-87
2021/08/23 06:58:27;;;;;;;;;;;;;;;;;;2042384;28;1406;-88
2021/08/23 06:59:29;;;;;;;;;;;;;;;;;;2048552;28;1317;-88
2021/08/23 07:00:30;;;;;;;;;;;;;;;;;;2044589;29;1660;-87
2021/08/23 07:01:32;;;;;;;;;;;;;;;;;;2042439;29;1776;-87
2021/08/23 07:02:34;;;;;;;;;;;;;;;;;;2042713;28;1368;-87
2021/08/23 07:24:16;;;;;;;;;;;;;;;;;;2034084;29;1292;-86
2021/08/23 07:25:41;;;;;;;;;;;;;;;;;;2035535;29;1203;-87
2021/08/23 07:26:45;;;;;;;;;;;;;;;;;;2027305;29;1219;-87
2021/08/23 07:27:46;;;;;;;;;;;;;;;;;;2021271;29;1339;-87
2021/08/23 07:28:54;;;;;;;;;;;;;;;;;;2012303;29;1222;-88
2021/08/23 07:29:58;;;;;;;;;;;;;;;;;;2018899;29;1509;-86